createdAt,value
2022-11-01T00:01:52.292Z,13.20
2022-11-01T00:04:21.806Z,13.30
2022-11-01T00:06:49.589Z,13.10
2022-11-01T00:09:17.379Z,13.00
2022-11-01T00:11:45.363Z,13.20
2022-11-01T00:14:13.988Z,13.20
2022-11-01T00:16:42.730Z,13.20
2022-11-01T00:19:11.057Z,13.10
2022-11-01T00:21:40.330Z,13.20
2022-11-01T00:24:08.194Z,13.20
2022-11-01T00:26:36.098Z,13.20
2022-11-01T00:29:03.924Z,13.20
2022-11-01T00:31:31.719Z,13.30
2022-11-01T00:34:03.548Z,13.20
2022-11-01T00:36:31.321Z,13.20
2022-11-01T00:39:00.591Z,13.20
2022-11-01T00:41:28.383Z,13.20
2022-11-01T00:43:56.130Z,13.20
2022-11-01T00:46:23.881Z,13.30
2022-11-01T00:48:51.733Z,13.30
2022-11-01T00:51:19.503Z,13.30
2022-11-01T00:53:47.260Z,13.30
2022-11-01T00:56:16.560Z,13.30
2022-11-01T00:58:44.528Z,13.30
2022-11-01T01:01:12.492Z,13.20
2022-11-01T01:03:40.325Z,13.20
2022-11-01T01:06:08.166Z,13.20
2022-11-01T01:08:35.900Z,13.10
2022-11-01T01:11:03.682Z,13.10
2022-11-01T01:13:32.748Z,13.10
2022-11-01T01:16:00.806Z,13.10
2022-11-01T01:18:28.681Z,12.90
2022-11-01T01:21:01.680Z,13.00
2022-11-01T01:23:29.445Z,13.00
2022-11-01T01:25:57.200Z,13.10
2022-11-01T01:28:24.966Z,13.10
2022-11-01T01:30:54.034Z,13.10
2022-11-01T01:33:21.753Z,13.30
2022-11-01T01:35:49.611Z,13.00
2022-11-01T01:38:17.370Z,13.00
2022-11-01T01:40:46.218Z,13.00
2022-11-01T01:43:13.991Z,13.00
2022-11-01T01:45:43.330Z,13.20
2022-11-01T01:48:19.175Z,13.00
2022-11-01T01:50:51.806Z,13.00
2022-11-01T01:53:24.744Z,13.00
2022-11-01T01:55:58.470Z,13.00
2022-11-01T01:58:29.912Z,12.80
2022-11-01T02:00:58.136Z,12.90
2022-11-01T02:03:31.645Z,13.00
2022-11-01T02:06:02.025Z,13.00
2022-11-01T02:08:31.105Z,13.00
2022-11-01T02:11:01.636Z,13.00
2022-11-01T02:13:29.650Z,12.90
2022-11-01T02:16:11.318Z,13.00
2022-11-01T02:18:47.610Z,13.00
2022-11-01T02:21:42.082Z,13.00
2022-11-01T02:24:42.971Z,13.00
2022-11-01T02:27:17.056Z,13.00
2022-11-01T02:30:13.655Z,13.00
2022-11-01T02:33:06.049Z,13.00
2022-11-01T02:35:42.989Z,13.00
2022-11-01T02:38:19.882Z,13.00
2022-11-01T02:40:55.640Z,12.90
2022-11-01T02:43:29.925Z,12.90
2022-11-01T02:46:19.335Z,13.00
2022-11-01T02:48:50.162Z,13.00
2022-11-01T02:51:20.803Z,13.00
2022-11-01T02:53:48.553Z,13.00
2022-11-01T02:56:18.644Z,12.90
2022-11-01T02:58:47.270Z,13.00
2022-11-01T03:01:22.208Z,13.00
2022-11-01T03:03:53.015Z,13.00
2022-11-01T03:06:28.474Z,13.00
2022-11-01T03:09:00.603Z,13.00
2022-11-01T03:11:36.077Z,13.00
2022-11-01T03:14:12.422Z,13.00
2022-11-01T03:16:50.041Z,13.00
2022-11-01T03:19:31.161Z,13.10
2022-11-01T03:22:04.152Z,13.00
2022-11-01T03:24:37.558Z,13.10
2022-11-01T03:27:08.484Z,13.10
2022-11-01T03:29:38.679Z,13.10
2022-11-01T03:32:08.532Z,13.10
2022-11-01T03:34:39.503Z,13.10
2022-11-01T03:37:12.360Z,13.10
2022-11-01T03:39:45.276Z,13.10
2022-11-01T03:42:17.070Z,13.10
2022-11-01T03:44:48.320Z,13.10
2022-11-01T03:47:16.508Z,13.20
2022-11-01T03:49:45.928Z,13.10
2022-11-01T03:52:13.832Z,13.10
2022-11-01T03:54:41.687Z,13.10
2022-11-01T03:57:09.598Z,13.10
2022-11-01T03:59:37.546Z,13.20
2022-11-01T04:02:05.488Z,13.20
2022-11-01T04:04:33.517Z,13.20
2022-11-01T04:07:02.729Z,13.20
2022-11-01T04:09:30.546Z,13.20
2022-11-01T04:11:58.373Z,13.30
2022-11-01T04:14:43.647Z,13.20
2022-11-01T04:17:29.222Z,13.20
2022-11-01T04:20:14.614Z,13.30
2022-11-01T04:22:44.268Z,13.20
2022-11-01T04:25:12.067Z,13.20
2022-11-01T04:27:39.945Z,13.20
2022-11-01T04:30:08.857Z,13.20
2022-11-01T04:32:36.736Z,13.20
2022-11-01T04:35:04.848Z,13.30
2022-11-01T04:37:32.683Z,13.30
2022-11-01T04:40:01.841Z,13.20
2022-11-01T04:42:29.811Z,13.30
2022-11-01T04:44:57.643Z,13.30
2022-11-01T04:47:25.452Z,13.30
2022-11-01T04:49:53.280Z,13.30
2022-11-01T04:52:21.055Z,13.30
2022-11-01T04:54:48.915Z,13.30
2022-11-01T04:57:24.201Z,13.30
2022-11-01T04:59:53.058Z,13.30
2022-11-01T05:02:21.524Z,13.30
2022-11-01T05:04:49.579Z,13.30
2022-11-01T05:07:17.501Z,13.30
2022-11-01T05:09:45.255Z,13.30
2022-11-01T05:12:13.071Z,13.30
2022-11-01T05:14:42.209Z,13.30
2022-11-01T05:17:09.960Z,13.30
2022-11-01T05:19:37.688Z,13.30
2022-11-01T05:22:05.794Z,13.30
2022-11-01T05:24:33.622Z,13.30
2022-11-01T05:27:01.438Z,13.30
2022-11-01T05:29:33.337Z,13.30
2022-11-01T05:32:02.721Z,13.30
2022-11-01T05:34:30.513Z,13.40
2022-11-01T05:36:58.462Z,13.30
2022-11-01T05:39:26.220Z,13.40
2022-11-01T05:41:56.847Z,13.40
2022-11-01T05:44:27.728Z,13.30
2022-11-01T05:46:55.482Z,13.30
2022-11-01T05:49:24.824Z,13.30
2022-11-01T05:51:52.552Z,13.40
2022-11-01T05:54:20.294Z,13.30
2022-11-01T05:56:48.037Z,13.30
2022-11-01T05:59:15.923Z,13.30
2022-11-01T06:01:43.739Z,13.40
2022-11-01T06:04:11.537Z,13.40
2022-11-01T06:06:40.745Z,13.40
2022-11-01T06:09:08.668Z,13.40
2022-11-01T06:11:41.402Z,13.40
2022-11-01T06:14:12.729Z,13.40
2022-11-01T06:16:41.075Z,13.40
2022-11-01T06:19:10.212Z,13.40
2022-11-01T06:21:38.019Z,13.40
2022-11-01T06:24:07.650Z,13.40
2022-11-01T06:26:35.407Z,13.50
2022-11-01T06:29:03.894Z,13.40
2022-11-01T06:31:32.380Z,13.50
2022-11-01T06:34:00.181Z,13.50
2022-11-01T06:36:27.939Z,13.50
2022-11-01T06:38:55.675Z,13.50
2022-11-01T06:41:24.766Z,13.50
2022-11-01T06:43:52.523Z,13.50
2022-11-01T06:46:20.241Z,13.60
2022-11-01T06:48:48.774Z,13.60
2022-11-01T06:51:16.543Z,13.60
2022-11-01T06:53:44.560Z,13.50
2022-11-01T06:56:12.402Z,13.50
2022-11-01T06:58:41.522Z,13.60
2022-11-01T07:01:09.431Z,13.60
2022-11-01T07:03:37.267Z,13.60
2022-11-01T07:06:05.299Z,13.60
2022-11-01T07:08:33.027Z,13.70
2022-11-01T07:11:00.762Z,13.60
2022-11-01T07:13:33.587Z,13.60
2022-11-01T07:16:04.131Z,13.60
2022-11-01T07:18:32.005Z,13.70
2022-11-01T07:21:02.766Z,13.70
2022-11-01T07:23:30.574Z,13.70
2022-11-01T07:25:58.535Z,13.70
2022-11-01T07:28:26.446Z,13.70
2022-11-01T07:30:55.952Z,13.70
2022-11-01T07:33:25.033Z,13.70
2022-11-01T07:35:53.305Z,13.70
2022-11-01T07:38:21.209Z,13.70
2022-11-01T07:40:49.770Z,13.70
2022-11-01T07:43:18.139Z,13.70
2022-11-01T07:45:45.901Z,13.70
2022-11-01T07:48:15.805Z,13.70
2022-11-01T07:50:45.620Z,13.70
2022-11-01T07:53:15.296Z,13.70
2022-11-01T07:55:43.717Z,13.70
2022-11-01T07:58:12.460Z,13.70
2022-11-01T08:00:40.874Z,13.70
2022-11-01T08:03:10.682Z,13.80
2022-11-01T08:05:38.617Z,13.80
2022-11-01T08:08:08.472Z,13.80
2022-11-01T08:10:36.968Z,13.80
2022-11-01T08:13:06.125Z,13.80
2022-11-01T08:15:34.502Z,13.80
2022-11-01T08:18:03.207Z,13.80
2022-11-01T08:20:31.694Z,13.90
2022-11-01T08:22:59.584Z,13.90
2022-11-01T08:25:28.797Z,13.90
2022-11-01T08:27:56.534Z,13.90
2022-11-01T08:30:24.367Z,13.90
2022-11-01T08:32:59.519Z,13.90
2022-11-01T08:35:28.118Z,13.90
2022-11-01T08:37:56.436Z,13.90
2022-11-01T08:40:24.524Z,13.90
2022-11-01T08:42:53.795Z,13.90
2022-11-01T08:45:22.103Z,13.90
2022-11-01T08:47:49.948Z,13.80
2022-11-01T08:50:18.875Z,13.90
2022-11-01T08:52:46.656Z,13.90
2022-11-01T08:55:14.523Z,13.90
2022-11-01T08:57:42.352Z,14.00
2022-11-01T09:00:13.808Z,14.00
2022-11-01T09:02:41.578Z,14.00
2022-11-01T09:05:09.637Z,14.10
2022-11-01T09:07:38.563Z,14.10
2022-11-01T09:10:07.911Z,14.10
2022-11-01T09:12:36.416Z,14.20
2022-11-01T09:15:04.938Z,14.20
2022-11-01T09:17:34.099Z,14.30
2022-11-01T09:20:02.110Z,14.40
2022-11-01T09:22:30.061Z,14.40
2022-11-01T09:24:58.667Z,14.40
2022-11-01T09:27:26.468Z,14.50
2022-11-01T09:29:54.262Z,14.60
2022-11-01T09:32:22.116Z,14.50
2022-11-01T09:34:51.193Z,14.60
2022-11-01T09:37:18.999Z,14.80
2022-11-01T09:39:46.792Z,14.90
2022-11-01T09:42:23.680Z,15.00
2022-11-01T09:44:54.810Z,15.20
2022-11-01T09:47:24.490Z,15.40
2022-11-01T09:50:02.521Z,15.30
2022-11-01T09:52:30.486Z,15.40
2022-11-01T09:54:59.023Z,15.40
2022-11-01T09:57:35.494Z,15.50
2022-11-01T10:00:08.721Z,15.50
2022-11-01T10:03:07.453Z,15.50
2022-11-01T10:05:51.334Z,15.50
2022-11-01T10:08:33.340Z,15.50
2022-11-01T10:11:14.886Z,15.50
2022-11-01T10:13:54.240Z,15.50
2022-11-01T10:16:31.013Z,15.50
2022-11-01T10:19:04.711Z,15.50
2022-11-01T10:21:42.826Z,15.60
2022-11-01T10:24:22.014Z,15.60
2022-11-01T10:26:54.933Z,15.70
2022-11-01T10:29:29.796Z,15.70
2022-11-01T10:31:58.756Z,15.80
2022-11-01T10:34:34.974Z,16.00
2022-11-01T10:37:16.012Z,16.00
2022-11-01T10:39:56.313Z,15.90
2022-11-01T10:42:29.629Z,16.10
2022-11-01T10:45:01.474Z,16.20
2022-11-01T10:47:29.535Z,16.20
2022-11-01T10:50:06.046Z,16.20
2022-11-01T10:52:45.767Z,16.20
2022-11-01T10:55:16.661Z,16.30
2022-11-01T10:57:49.340Z,16.30
2022-11-01T11:00:20.075Z,16.30
2022-11-01T11:02:51.998Z,16.40
2022-11-01T11:05:22.255Z,16.40
2022-11-01T11:07:51.794Z,16.30
2022-11-01T11:10:24.379Z,16.40
2022-11-01T11:12:57.521Z,16.40
2022-11-01T11:15:36.258Z,16.50
2022-11-01T11:18:08.911Z,16.20
2022-11-01T11:20:37.758Z,16.50
2022-11-01T11:23:11.255Z,16.50
2022-11-01T11:25:41.085Z,16.40
2022-11-01T11:28:25.484Z,16.40
2022-11-01T11:30:53.784Z,16.40
2022-11-01T11:33:22.928Z,16.40
2022-11-01T11:35:57.455Z,16.40
2022-11-01T11:38:44.773Z,16.30
2022-11-01T11:41:14.856Z,16.20
2022-11-01T11:43:43.584Z,16.30
2022-11-01T11:46:19.113Z,16.20
2022-11-01T11:48:48.085Z,16.20
2022-11-01T11:51:16.229Z,16.20
2022-11-01T11:53:45.981Z,16.20
2022-11-01T11:56:13.837Z,16.20
2022-11-01T11:58:44.078Z,16.20
2022-11-01T12:01:15.372Z,16.30
2022-11-01T12:03:48.938Z,16.50
2022-11-01T12:06:21.171Z,16.70
2022-11-01T12:08:51.841Z,16.90
2022-11-01T12:11:20.029Z,17.00
2022-11-01T12:14:01.673Z,17.10
2022-11-01T12:16:29.648Z,17.10
2022-11-01T12:18:58.909Z,17.20
2022-11-01T12:21:29.700Z,17.30
2022-11-01T12:24:08.624Z,17.20
2022-11-01T12:26:38.945Z,17.20
2022-11-01T12:29:22.335Z,17.20
2022-11-01T12:31:51.467Z,17.20
2022-11-01T12:34:22.878Z,17.20
2022-11-01T12:36:58.050Z,17.20
2022-11-01T12:39:41.274Z,17.20
2022-11-01T12:42:12.959Z,17.30
2022-11-01T12:44:43.850Z,17.30
2022-11-01T12:47:18.868Z,17.40
2022-11-01T12:49:51.840Z,17.60
2022-11-01T12:52:27.574Z,17.30
2022-11-01T12:55:05.163Z,17.30
2022-11-01T12:57:34.819Z,17.10
2022-11-01T13:00:04.516Z,17.10
2022-11-01T13:02:59.749Z,17.10
2022-11-01T13:05:35.261Z,17.10
2022-11-01T13:08:11.017Z,17.30
2022-11-01T13:10:43.709Z,17.10
2022-11-01T13:13:18.859Z,17.00
2022-11-01T13:15:57.115Z,17.00
2022-11-01T13:18:36.667Z,16.70
2022-11-01T13:21:11.889Z,16.50
2022-11-01T13:23:45.272Z,16.40
2022-11-01T13:26:22.305Z,16.40
2022-11-01T13:29:01.934Z,16.30
2022-11-01T13:31:38.336Z,16.30
2022-11-01T13:34:22.070Z,16.20
2022-11-01T13:36:58.817Z,16.10
2022-11-01T13:39:40.472Z,16.10
2022-11-01T13:42:13.509Z,16.10
2022-11-01T13:44:44.748Z,16.10
2022-11-01T13:50:37.873Z,16.10
2022-11-01T13:53:14.757Z,16.10
2022-11-01T13:55:50.761Z,16.20
2022-11-01T13:58:23.233Z,16.20
2022-11-01T14:00:52.749Z,16.10
2022-11-01T14:03:26.974Z,16.20
2022-11-01T14:06:27.420Z,16.20
2022-11-01T14:09:33.917Z,16.10
2022-11-01T14:12:12.850Z,16.10
2022-11-01T14:14:52.357Z,16.00
2022-11-01T14:17:40.483Z,16.00
2022-11-01T14:20:37.868Z,16.10
2022-11-01T14:23:53.942Z,16.00
2022-11-01T14:26:26.204Z,16.00
2022-11-01T14:28:58.987Z,15.90
2022-11-01T14:31:33.680Z,15.90
2022-11-01T14:34:03.208Z,15.90
2022-11-01T14:36:37.592Z,15.90
2022-11-01T14:39:13.050Z,15.90
2022-11-01T14:41:41.941Z,15.80
2022-11-01T14:44:15.710Z,15.80
2022-11-01T14:46:48.706Z,15.80
2022-11-01T14:49:24.971Z,15.70
2022-11-01T14:51:57.792Z,15.80
2022-11-01T14:54:35.491Z,15.70
2022-11-01T14:57:03.963Z,15.70
2022-11-01T14:59:33.596Z,15.60
2022-11-01T15:02:05.206Z,15.60
2022-11-01T15:04:41.021Z,15.60
2022-11-01T15:07:20.153Z,15.50
2022-11-01T15:09:59.585Z,15.50
2022-11-01T15:12:30.548Z,15.50
2022-11-01T15:14:59.563Z,15.50
2022-11-01T15:17:32.512Z,15.40
2022-11-01T15:20:02.337Z,15.50
2022-11-01T15:22:33.800Z,15.40
2022-11-01T15:25:04.246Z,15.40
2022-11-01T15:27:37.019Z,15.30
2022-11-01T15:30:06.161Z,15.30
2022-11-01T15:32:36.145Z,15.20
2022-11-01T15:35:20.459Z,15.20
2022-11-01T15:37:50.563Z,15.10
2022-11-01T15:40:28.850Z,15.10
2022-11-01T15:42:58.107Z,15.00
2022-11-01T15:45:29.630Z,15.10
2022-11-01T15:48:01.257Z,14.90
2022-11-01T15:50:35.252Z,14.80
2022-11-01T15:55:35.256Z,14.60
2022-11-01T15:58:06.972Z,14.60
2022-11-01T16:03:11.065Z,14.40
2022-11-01T16:10:45.424Z,14.20
2022-11-01T16:13:17.286Z,14.10
2022-11-01T16:16:00.314Z,14.10
2022-11-01T16:18:29.458Z,14.00
2022-11-01T16:21:06.240Z,14.10
2022-11-01T16:23:34.238Z,13.90
2022-11-01T16:28:32.950Z,13.90
2022-11-01T16:31:00.806Z,13.90
2022-11-01T16:36:38.527Z,13.70
2022-11-01T16:39:27.781Z,13.70
2022-11-01T16:41:55.886Z,13.70
2022-11-01T16:49:24.709Z,13.40
2022-11-01T16:51:53.203Z,13.80
2022-11-01T16:54:21.182Z,13.80
2022-11-01T16:59:32.479Z,13.50
2022-11-01T17:04:31.004Z,14.00
2022-11-01T17:11:57.354Z,13.10
2022-11-01T17:14:26.191Z,13.00
2022-11-01T17:16:56.216Z,13.20
2022-11-01T17:19:29.003Z,13.00
2022-11-01T17:21:59.744Z,13.00
2022-11-01T17:24:28.316Z,13.10
2022-11-01T17:29:26.874Z,12.60
2022-11-01T17:31:54.683Z,12.60
2022-11-01T17:34:22.554Z,12.60
2022-11-01T17:36:51.294Z,12.60
2022-11-01T17:39:21.118Z,12.50
2022-11-01T17:41:48.859Z,12.60
2022-11-01T17:44:17.462Z,12.50
2022-11-01T17:46:45.232Z,12.60
2022-11-01T17:49:14.386Z,12.50
2022-11-01T17:51:42.198Z,12.60
2022-11-01T17:54:10.668Z,12.60
2022-11-01T17:56:39.909Z,12.70
2022-11-01T17:59:08.629Z,12.60
2022-11-01T18:01:38.565Z,12.60
2022-11-01T18:04:06.876Z,12.50
2022-11-01T18:06:34.656Z,12.50
2022-11-01T18:09:05.407Z,12.40
2022-11-01T18:11:42.641Z,12.30
2022-11-01T18:14:24.913Z,12.30
2022-11-01T18:16:59.540Z,12.40
2022-11-01T18:19:51.609Z,12.20
2022-11-01T18:22:31.428Z,12.30
2022-11-01T18:25:03.969Z,12.20
2022-11-01T18:27:35.619Z,12.10
2022-11-01T18:30:12.423Z,12.00
2022-11-01T18:32:44.860Z,12.00
2022-11-01T18:35:31.842Z,11.90
2022-11-01T18:48:31.008Z,11.60
2022-11-01T18:51:05.064Z,11.50
2022-11-01T18:53:34.390Z,11.40
2022-11-01T18:56:18.348Z,11.40
2022-11-01T18:58:47.575Z,11.40
2022-11-01T19:01:19.107Z,11.40
2022-11-01T19:03:47.077Z,11.40
2022-11-01T19:06:20.368Z,11.40
2022-11-01T19:08:53.189Z,11.40
2022-11-01T19:11:21.487Z,11.50
2022-11-01T19:13:51.857Z,11.40
2022-11-01T19:16:20.900Z,11.40
2022-11-01T19:18:50.670Z,11.40
2022-11-01T19:21:20.728Z,11.40
2022-11-01T19:23:50.421Z,11.40
2022-11-01T19:26:23.649Z,11.40
2022-11-01T19:28:53.034Z,11.40
2022-11-01T19:31:30.405Z,11.40
2022-11-01T19:39:21.248Z,11.30
2022-11-01T19:41:49.484Z,11.30
2022-11-01T19:44:22.181Z,11.30
2022-11-01T19:49:24.635Z,11.30
2022-11-01T19:52:19.292Z,11.30
2022-11-01T19:54:51.173Z,11.30
2022-11-01T19:57:28.903Z,11.20
2022-11-01T20:00:18.884Z,11.20
2022-11-01T20:02:47.563Z,11.20
2022-11-01T20:05:27.332Z,11.30
2022-11-01T20:08:04.108Z,11.20
2022-11-01T20:10:33.271Z,11.20
2022-11-01T20:15:29.916Z,11.10
2022-11-01T20:17:57.649Z,11.10
2022-11-01T20:20:25.816Z,11.00
2022-11-01T20:23:06.170Z,11.00
2022-11-01T20:25:42.072Z,11.00
2022-11-01T20:28:09.850Z,11.20
2022-11-01T20:30:37.616Z,11.20
2022-11-01T20:33:05.887Z,11.20
2022-11-01T20:35:33.943Z,11.20
2022-11-01T20:38:01.694Z,11.20
2022-11-01T20:40:29.491Z,11.20
2022-11-01T20:42:58.557Z,11.20
2022-11-01T20:45:26.320Z,11.10
2022-11-01T20:47:54.043Z,11.10
2022-11-01T20:50:22.247Z,11.10
2022-11-01T20:52:50.255Z,11.00
2022-11-01T20:55:18.278Z,11.00
2022-11-01T20:57:46.063Z,11.00
2022-11-01T21:00:18.198Z,10.90
2022-11-01T21:02:46.356Z,10.90
2022-11-01T21:05:22.800Z,10.90
2022-11-01T21:07:53.747Z,10.80
2022-11-01T21:10:28.423Z,10.80
2022-11-01T21:12:56.877Z,10.80
2022-11-01T21:15:35.126Z,10.80
2022-11-01T21:18:33.447Z,10.80
2022-11-01T21:21:34.122Z,10.70
2022-11-01T21:24:21.541Z,10.70
2022-11-01T21:26:53.483Z,10.70
2022-11-01T21:29:27.936Z,10.70
2022-11-01T21:31:57.824Z,10.60
2022-11-01T21:34:28.903Z,10.70
2022-11-01T21:36:58.568Z,10.70
2022-11-01T21:39:27.535Z,10.60
2022-11-01T21:41:57.555Z,10.60
2022-11-01T21:44:28.172Z,10.60
2022-11-01T21:46:59.262Z,10.60
2022-11-01T21:49:29.650Z,10.60
2022-11-01T21:52:00.355Z,10.60
2022-11-01T21:54:29.950Z,10.60
2022-11-01T21:56:58.598Z,10.60
2022-11-01T21:59:26.990Z,10.60
2022-11-01T22:01:57.223Z,10.60
2022-11-01T22:04:28.689Z,10.60
2022-11-01T22:06:57.056Z,10.60
2022-11-01T22:09:25.057Z,10.50
2022-11-01T22:11:53.151Z,10.60
2022-11-01T22:14:21.223Z,10.60
2022-11-01T22:16:49.008Z,10.60
2022-11-01T22:19:18.456Z,10.60
2022-11-01T22:24:19.013Z,9.80
2022-11-01T22:26:46.780Z,10.60
2022-11-01T22:29:14.484Z,10.60
2022-11-01T22:31:43.166Z,10.60
2022-11-01T22:34:10.922Z,10.60
2022-11-01T22:36:41.522Z,10.50
2022-11-01T22:41:42.367Z,10.50
2022-11-01T22:44:14.223Z,10.50
2022-11-01T22:46:47.682Z,10.50
2022-11-01T22:49:24.767Z,10.40
2022-11-01T22:51:56.587Z,10.40
2022-11-01T22:54:35.250Z,10.40
2022-11-01T22:57:11.115Z,10.50
2022-11-01T22:59:42.171Z,10.50
2022-11-01T23:02:25.609Z,10.50
2022-11-01T23:04:59.187Z,10.50
2022-11-01T23:07:34.190Z,10.50
2022-11-01T23:10:07.061Z,10.40
2022-11-01T23:12:55.112Z,10.40
2022-11-01T23:15:27.518Z,10.30
2022-11-01T23:18:01.619Z,10.30
2022-11-01T23:20:30.742Z,10.30
2022-11-01T23:23:00.590Z,10.20
2022-11-01T23:27:57.924Z,10.20
2022-11-01T23:30:26.236Z,10.20
2022-11-01T23:32:54.089Z,10.20
2022-11-01T23:35:22.706Z,10.20
2022-11-01T23:37:52.107Z,10.20
2022-11-01T23:40:22.591Z,10.20
2022-11-01T23:42:50.551Z,10.30
2022-11-01T23:45:27.524Z,10.30
2022-11-01T23:47:55.556Z,10.30
2022-11-01T23:50:30.226Z,10.30
2022-11-01T23:53:00.114Z,10.40
2022-11-01T23:55:32.324Z,10.40
2022-11-01T23:58:02.844Z,10.40
